sensor_id;sensor_type;location;lat;lon;timestamp;P1;durP1;ratioP1;P2;durP2;ratioP2
25567;SDS011;13455;51.480;7.594;2022-08-21T00:01:31;11.80;;;4.47;;
25567;SDS011;13455;51.480;7.594;2022-08-21T00:03:57;13.50;;;5.15;;
25567;SDS011;13455;51.480;7.594;2022-08-21T00:06:23;11.18;;;5.55;;
25567;SDS011;13455;51.480;7.594;2022-08-21T00:08:52;11.77;;;6.17;;
25567;SDS011;13455;51.480;7.594;2022-08-21T00:11:18;13.48;;;6.13;;
25567;SDS011;13455;51.480;7.594;2022-08-21T00:13:45;12.50;;;6.45;;
25567;SDS011;13455;51.480;7.594;2022-08-21T00:16:11;13.38;;;7.20;;
25567;SDS011;13455;51.480;7.594;2022-08-21T00:18:37;14.20;;;6.90;;
25567;SDS011;13455;51.480;7.594;2022-08-21T00:21:03;14.63;;;7.18;;
25567;SDS011;13455;51.480;7.594;2022-08-21T00:23:29;16.52;;;7.88;;
25567;SDS011;13455;51.480;7.594;2022-08-21T00:25:55;14.55;;;8.45;;
25567;SDS011;13455;51.480;7.594;2022-08-21T00:28:21;19.33;;;8.43;;
25567;SDS011;13455;51.480;7.594;2022-08-21T00:30:47;14.55;;;8.15;;
25567;SDS011;13455;51.480;7.594;2022-08-21T00:33:13;15.57;;;8.43;;
25567;SDS011;13455;51.480;7.594;2022-08-21T00:35:41;13.50;;;8.07;;
25567;SDS011;13455;51.480;7.594;2022-08-21T00:38:07;15.32;;;8.30;;
25567;SDS011;13455;51.480;7.594;2022-08-21T00:40:41;15.40;;;8.43;;
25567;SDS011;13455;51.480;7.594;2022-08-21T00:43:11;13.80;;;8.45;;
25567;SDS011;13455;51.480;7.594;2022-08-21T00:45:39;15.65;;;8.93;;
25567;SDS011;13455;51.480;7.594;2022-08-21T00:48:04;15.77;;;8.73;;
25567;SDS011;13455;51.480;7.594;2022-08-21T00:50:32;15.82;;;8.50;;
25567;SDS011;13455;51.480;7.594;2022-08-21T00:53:00;16.30;;;9.07;;
25567;SDS011;13455;51.480;7.594;2022-08-21T00:55:27;15.43;;;8.80;;
25567;SDS011;13455;51.480;7.594;2022-08-21T00:57:55;16.48;;;8.88;;
25567;SDS011;13455;51.480;7.594;2022-08-21T01:00:26;15.37;;;8.73;;
25567;SDS011;13455;51.480;7.594;2022-08-21T01:02:55;14.32;;;8.57;;
25567;SDS011;13455;51.480;7.594;2022-08-21T01:05:22;17.40;;;9.27;;
25567;SDS011;13455;51.480;7.594;2022-08-21T01:07:48;15.95;;;8.90;;
25567;SDS011;13455;51.480;7.594;2022-08-21T01:10:14;15.32;;;8.98;;
25567;SDS011;13455;51.480;7.594;2022-08-21T01:12:40;15.73;;;9.13;;
25567;SDS011;13455;51.480;7.594;2022-08-21T01:15:07;15.45;;;9.07;;
25567;SDS011;13455;51.480;7.594;2022-08-21T01:17:33;16.73;;;9.48;;
25567;SDS011;13455;51.480;7.594;2022-08-21T01:20:01;17.98;;;9.48;;
25567;SDS011;13455;51.480;7.594;2022-08-21T01:22:31;16.38;;;9.43;;
25567;SDS011;13455;51.480;7.594;2022-08-21T01:24:57;16.63;;;9.40;;
25567;SDS011;13455;51.480;7.594;2022-08-21T01:27:23;13.40;;;8.88;;
25567;SDS011;13455;51.480;7.594;2022-08-21T01:30:07;15.20;;;9.10;;
25567;SDS011;13455;51.480;7.594;2022-08-21T01:32:34;20.53;;;9.60;;
25567;SDS011;13455;51.480;7.594;2022-08-21T01:35:00;19.50;;;8.93;;
25567;SDS011;13455;51.480;7.594;2022-08-21T01:37:26;16.38;;;9.52;;
25567;SDS011;13455;51.480;7.594;2022-08-21T01:39:52;17.95;;;9.50;;
25567;SDS011;13455;51.480;7.594;2022-08-21T01:42:18;14.68;;;9.07;;
25567;SDS011;13455;51.480;7.594;2022-08-21T01:44:44;16.27;;;9.00;;
25567;SDS011;13455;51.480;7.594;2022-08-21T01:47:11;16.30;;;9.20;;
25567;SDS011;13455;51.480;7.594;2022-08-21T01:49:39;14.45;;;8.93;;
25567;SDS011;13455;51.480;7.594;2022-08-21T01:52:05;18.00;;;9.15;;
25567;SDS011;13455;51.480;7.594;2022-08-21T01:54:32;18.35;;;9.40;;
25567;SDS011;13455;51.480;7.594;2022-08-21T01:56:58;17.38;;;9.35;;
25567;SDS011;13455;51.480;7.594;2022-08-21T01:59:24;15.07;;;8.60;;
25567;SDS011;13455;51.480;7.594;2022-08-21T02:01:51;18.87;;;9.20;;
25567;SDS011;13455;51.480;7.594;2022-08-21T02:04:19;17.98;;;9.68;;
25567;SDS011;13455;51.480;7.594;2022-08-21T02:06:45;18.17;;;9.25;;
25567;SDS011;13455;51.480;7.594;2022-08-21T02:09:11;14.80;;;9.40;;
25567;SDS011;13455;51.480;7.594;2022-08-21T02:11:38;15.88;;;9.15;;
25567;SDS011;13455;51.480;7.594;2022-08-21T02:14:08;15.65;;;9.00;;
25567;SDS011;13455;51.480;7.594;2022-08-21T02:16:34;16.73;;;9.43;;
25567;SDS011;13455;51.480;7.594;2022-08-21T02:19:00;14.25;;;9.10;;
25567;SDS011;13455;51.480;7.594;2022-08-21T02:21:26;17.85;;;9.00;;
25567;SDS011;13455;51.480;7.594;2022-08-21T02:23:52;15.25;;;8.68;;
25567;SDS011;13455;51.480;7.594;2022-08-21T02:26:18;15.23;;;9.25;;
25567;SDS011;13455;51.480;7.594;2022-08-21T02:28:44;16.90;;;9.03;;
25567;SDS011;13455;51.480;7.594;2022-08-21T02:31:10;14.70;;;9.10;;
25567;SDS011;13455;51.480;7.594;2022-08-21T02:33:36;12.60;;;8.68;;
25567;SDS011;13455;51.480;7.594;2022-08-21T02:36:03;17.20;;;8.98;;
25567;SDS011;13455;51.480;7.594;2022-08-21T02:38:31;16.05;;;9.00;;
25567;SDS011;13455;51.480;7.594;2022-08-21T02:41:00;15.02;;;9.07;;
25567;SDS011;13455;51.480;7.594;2022-08-21T02:43:26;16.67;;;9.23;;
25567;SDS011;13455;51.480;7.594;2022-08-21T02:45:54;18.88;;;9.00;;
25567;SDS011;13455;51.480;7.594;2022-08-21T02:48:22;16.00;;;9.10;;
25567;SDS011;13455;51.480;7.594;2022-08-21T02:50:51;14.38;;;8.82;;
25567;SDS011;13455;51.480;7.594;2022-08-21T02:53:18;14.60;;;8.35;;
25567;SDS011;13455;51.480;7.594;2022-08-21T02:55:45;15.45;;;8.85;;
25567;SDS011;13455;51.480;7.594;2022-08-21T02:58:13;15.65;;;8.40;;
25567;SDS011;13455;51.480;7.594;2022-08-21T03:00:39;15.68;;;8.50;;
25567;SDS011;13455;51.480;7.594;2022-08-21T03:03:05;13.38;;;8.05;;
25567;SDS011;13455;51.480;7.594;2022-08-21T03:05:32;12.98;;;8.00;;
25567;SDS011;13455;51.480;7.594;2022-08-21T03:07:59;15.27;;;8.13;;
25567;SDS011;13455;51.480;7.594;2022-08-21T03:10:25;19.23;;;8.63;;
25567;SDS011;13455;51.480;7.594;2022-08-21T03:12:52;17.15;;;8.48;;
25567;SDS011;13455;51.480;7.594;2022-08-21T03:15:19;14.57;;;8.25;;
25567;SDS011;13455;51.480;7.594;2022-08-21T03:17:46;13.10;;;8.10;;
25567;SDS011;13455;51.480;7.594;2022-08-21T03:20:14;14.15;;;8.32;;
25567;SDS011;13455;51.480;7.594;2022-08-21T03:22:40;14.95;;;8.60;;
25567;SDS011;13455;51.480;7.594;2022-08-21T03:25:07;14.55;;;8.43;;
25567;SDS011;13455;51.480;7.594;2022-08-21T03:27:33;14.60;;;8.43;;
25567;SDS011;13455;51.480;7.594;2022-08-21T03:29:59;12.88;;;8.35;;
25567;SDS011;13455;51.480;7.594;2022-08-21T03:32:25;14.55;;;8.30;;
25567;SDS011;13455;51.480;7.594;2022-08-21T03:34:51;14.13;;;8.50;;
25567;SDS011;13455;51.480;7.594;2022-08-21T03:37:18;13.07;;;8.43;;
25567;SDS011;13455;51.480;7.594;2022-08-21T03:39:44;15.20;;;8.63;;
25567;SDS011;13455;51.480;7.594;2022-08-21T03:42:10;15.30;;;8.18;;
25567;SDS011;13455;51.480;7.594;2022-08-21T03:44:37;16.35;;;8.38;;
25567;SDS011;13455;51.480;7.594;2022-08-21T03:47:04;16.57;;;8.43;;
25567;SDS011;13455;51.480;7.594;2022-08-21T03:49:30;14.35;;;8.20;;
25567;SDS011;13455;51.480;7.594;2022-08-21T03:51:56;14.68;;;8.85;;
25567;SDS011;13455;51.480;7.594;2022-08-21T03:54:23;16.38;;;8.75;;
25567;SDS011;13455;51.480;7.594;2022-08-21T03:56:49;16.43;;;8.30;;
25567;SDS011;13455;51.480;7.594;2022-08-21T03:59:16;17.25;;;9.15;;
25567;SDS011;13455;51.480;7.594;2022-08-21T04:01:51;13.63;;;8.48;;
25567;SDS011;13455;51.480;7.594;2022-08-21T04:04:17;15.52;;;8.70;;
25567;SDS011;13455;51.480;7.594;2022-08-21T04:06:48;16.88;;;9.15;;
25567;SDS011;13455;51.480;7.594;2022-08-21T04:09:15;19.63;;;9.00;;
25567;SDS011;13455;51.480;7.594;2022-08-21T04:11:42;16.65;;;9.05;;
25567;SDS011;13455;51.480;7.594;2022-08-21T04:14:12;15.45;;;9.40;;
25567;SDS011;13455;51.480;7.594;2022-08-21T04:16:38;15.93;;;9.27;;
25567;SDS011;13455;51.480;7.594;2022-08-21T04:19:04;17.00;;;9.02;;
25567;SDS011;13455;51.480;7.594;2022-08-21T04:21:30;17.50;;;9.30;;
25567;SDS011;13455;51.480;7.594;2022-08-21T04:23:57;15.77;;;9.18;;
25567;SDS011;13455;51.480;7.594;2022-08-21T04:26:24;17.77;;;9.57;;
25567;SDS011;13455;51.480;7.594;2022-08-21T04:28:50;15.60;;;9.63;;
25567;SDS011;13455;51.480;7.594;2022-08-21T04:31:17;14.90;;;8.97;;
25567;SDS011;13455;51.480;7.594;2022-08-21T04:33:43;14.98;;;9.45;;
25567;SDS011;13455;51.480;7.594;2022-08-21T04:36:10;14.50;;;9.53;;
25567;SDS011;13455;51.480;7.594;2022-08-21T04:38:36;17.25;;;9.48;;
25567;SDS011;13455;51.480;7.594;2022-08-21T04:41:03;16.60;;;9.85;;
25567;SDS011;13455;51.480;7.594;2022-08-21T04:43:30;17.60;;;9.60;;
25567;SDS011;13455;51.480;7.594;2022-08-21T04:45:56;15.35;;;9.75;;
25567;SDS011;13455;51.480;7.594;2022-08-21T04:48:22;14.88;;;10.20;;
25567;SDS011;13455;51.480;7.594;2022-08-21T04:55:50;16.27;;;9.82;;
25567;SDS011;13455;51.480;7.594;2022-08-21T04:58:17;16.52;;;9.60;;
25567;SDS011;13455;51.480;7.594;2022-08-21T05:00:44;14.98;;;9.43;;
25567;SDS011;13455;51.480;7.594;2022-08-21T05:03:10;15.85;;;9.73;;
25567;SDS011;13455;51.480;7.594;2022-08-21T05:05:37;17.08;;;10.02;;
25567;SDS011;13455;51.480;7.594;2022-08-21T05:08:03;17.88;;;9.70;;
25567;SDS011;13455;51.480;7.594;2022-08-21T05:10:29;17.02;;;9.90;;
25567;SDS011;13455;51.480;7.594;2022-08-21T05:12:56;15.13;;;9.85;;
25567;SDS011;13455;51.480;7.594;2022-08-21T05:15:23;19.60;;;10.02;;
25567;SDS011;13455;51.480;7.594;2022-08-21T05:17:49;16.50;;;10.10;;
25567;SDS011;13455;51.480;7.594;2022-08-21T05:20:15;16.53;;;9.83;;
25567;SDS011;13455;51.480;7.594;2022-08-21T05:22:42;18.67;;;10.13;;
25567;SDS011;13455;51.480;7.594;2022-08-21T05:25:08;17.03;;;10.20;;
25567;SDS011;13455;51.480;7.594;2022-08-21T05:27:34;15.02;;;9.63;;
25567;SDS011;13455;51.480;7.594;2022-08-21T05:30:00;18.73;;;10.20;;
25567;SDS011;13455;51.480;7.594;2022-08-21T05:32:26;17.48;;;10.07;;
25567;SDS011;13455;51.480;7.594;2022-08-21T05:34:53;16.42;;;9.55;;
25567;SDS011;13455;51.480;7.594;2022-08-21T05:37:19;15.40;;;9.50;;
25567;SDS011;13455;51.480;7.594;2022-08-21T05:39:45;18.15;;;9.68;;
25567;SDS011;13455;51.480;7.594;2022-08-21T05:42:12;15.43;;;9.60;;
25567;SDS011;13455;51.480;7.594;2022-08-21T05:44:38;15.70;;;9.57;;
25567;SDS011;13455;51.480;7.594;2022-08-21T05:47:04;15.10;;;9.05;;
25567;SDS011;13455;51.480;7.594;2022-08-21T05:49:31;14.93;;;9.63;;
25567;SDS011;13455;51.480;7.594;2022-08-21T05:51:57;16.65;;;9.57;;
25567;SDS011;13455;51.480;7.594;2022-08-21T05:54:23;16.93;;;9.50;;
25567;SDS011;13455;51.480;7.594;2022-08-21T05:56:49;14.25;;;8.95;;
25567;SDS011;13455;51.480;7.594;2022-08-21T05:59:15;14.88;;;8.77;;
25567;SDS011;13455;51.480;7.594;2022-08-21T06:01:41;15.13;;;9.13;;
25567;SDS011;13455;51.480;7.594;2022-08-21T06:04:07;16.55;;;8.77;;
25567;SDS011;13455;51.480;7.594;2022-08-21T06:06:33;15.43;;;8.63;;
25567;SDS011;13455;51.480;7.594;2022-08-21T06:08:59;16.40;;;9.30;;
25567;SDS011;13455;51.480;7.594;2022-08-21T06:11:26;14.73;;;8.20;;
25567;SDS011;13455;51.480;7.594;2022-08-21T06:13:52;15.30;;;8.60;;
25567;SDS011;13455;51.480;7.594;2022-08-21T06:16:18;12.60;;;8.35;;
25567;SDS011;13455;51.480;7.594;2022-08-21T06:18:44;14.50;;;8.27;;
25567;SDS011;13455;51.480;7.594;2022-08-21T06:21:11;12.50;;;8.05;;
25567;SDS011;13455;51.480;7.594;2022-08-21T06:23:38;13.57;;;8.13;;
25567;SDS011;13455;51.480;7.594;2022-08-21T06:26:05;12.73;;;8.13;;
25567;SDS011;13455;51.480;7.594;2022-08-21T06:28:32;12.68;;;7.70;;
25567;SDS011;13455;51.480;7.594;2022-08-21T06:30:58;12.35;;;7.60;;
25567;SDS011;13455;51.480;7.594;2022-08-21T06:33:24;13.48;;;7.82;;
25567;SDS011;13455;51.480;7.594;2022-08-21T06:35:50;15.48;;;7.75;;
25567;SDS011;13455;51.480;7.594;2022-08-21T06:38:16;13.50;;;7.72;;
25567;SDS011;13455;51.480;7.594;2022-08-21T06:40:43;15.00;;;7.38;;
25567;SDS011;13455;51.480;7.594;2022-08-21T06:43:10;13.35;;;7.40;;
25567;SDS011;13455;51.480;7.594;2022-08-21T06:45:36;13.40;;;7.45;;
25567;SDS011;13455;51.480;7.594;2022-08-21T06:48:02;14.67;;;7.30;;
25567;SDS011;13455;51.480;7.594;2022-08-21T06:50:29;12.75;;;6.78;;
25567;SDS011;13455;51.480;7.594;2022-08-21T06:53:14;10.57;;;6.78;;
25567;SDS011;13455;51.480;7.594;2022-08-21T06:55:40;13.13;;;6.90;;
25567;SDS011;13455;51.480;7.594;2022-08-21T06:58:07;14.00;;;6.88;;
25567;SDS011;13455;51.480;7.594;2022-08-21T07:00:33;11.77;;;6.37;;
25567;SDS011;13455;51.480;7.594;2022-08-21T07:02:59;13.02;;;6.97;;
25567;SDS011;13455;51.480;7.594;2022-08-21T07:05:26;12.93;;;6.50;;
25567;SDS011;13455;51.480;7.594;2022-08-21T07:07:56;13.37;;;6.50;;
25567;SDS011;13455;51.480;7.594;2022-08-21T07:10:22;12.68;;;5.68;;
25567;SDS011;13455;51.480;7.594;2022-08-21T07:12:51;12.90;;;5.87;;
25567;SDS011;13455;51.480;7.594;2022-08-21T07:15:19;10.50;;;5.63;;
25567;SDS011;13455;51.480;7.594;2022-08-21T07:17:45;10.97;;;5.70;;
25567;SDS011;13455;51.480;7.594;2022-08-21T07:20:11;11.13;;;5.35;;
25567;SDS011;13455;51.480;7.594;2022-08-21T07:22:37;13.35;;;5.78;;
25567;SDS011;13455;51.480;7.594;2022-08-21T07:25:04;10.82;;;5.35;;
25567;SDS011;13455;51.480;7.594;2022-08-21T07:27:31;8.90;;;4.80;;
25567;SDS011;13455;51.480;7.594;2022-08-21T07:29:57;12.90;;;5.20;;
25567;SDS011;13455;51.480;7.594;2022-08-21T07:32:23;11.15;;;5.20;;
25567;SDS011;13455;51.480;7.594;2022-08-21T07:34:49;13.10;;;5.20;;
25567;SDS011;13455;51.480;7.594;2022-08-21T07:37:14;11.70;;;5.53;;
25567;SDS011;13455;51.480;7.594;2022-08-21T07:39:40;10.23;;;5.00;;
25567;SDS011;13455;51.480;7.594;2022-08-21T07:42:06;11.25;;;5.20;;
25567;SDS011;13455;51.480;7.594;2022-08-21T07:44:33;11.80;;;5.35;;
25567;SDS011;13455;51.480;7.594;2022-08-21T07:47:00;14.07;;;4.95;;
25567;SDS011;13455;51.480;7.594;2022-08-21T07:49:26;11.60;;;4.87;;
25567;SDS011;13455;51.480;7.594;2022-08-21T07:51:52;11.13;;;5.00;;
25567;SDS011;13455;51.480;7.594;2022-08-21T07:54:18;12.13;;;5.10;;
25567;SDS011;13455;51.480;7.594;2022-08-21T07:56:44;11.43;;;5.28;;
25567;SDS011;13455;51.480;7.594;2022-08-21T07:59:10;13.43;;;5.82;;
25567;SDS011;13455;51.480;7.594;2022-08-21T08:01:37;13.75;;;5.15;;
25567;SDS011;13455;51.480;7.594;2022-08-21T08:04:02;11.60;;;4.80;;
25567;SDS011;13455;51.480;7.594;2022-08-21T08:06:29;11.57;;;5.73;;
25567;SDS011;13455;51.480;7.594;2022-08-21T08:08:55;12.68;;;5.50;;
25567;SDS011;13455;51.480;7.594;2022-08-21T08:11:21;14.65;;;5.03;;
25567;SDS011;13455;51.480;7.594;2022-08-21T08:13:48;13.55;;;5.85;;
25567;SDS011;13455;51.480;7.594;2022-08-21T08:16:15;12.05;;;5.60;;
25567;SDS011;13455;51.480;7.594;2022-08-21T08:18:41;10.53;;;5.40;;
25567;SDS011;13455;51.480;7.594;2022-08-21T08:21:08;11.95;;;5.40;;
25567;SDS011;13455;51.480;7.594;2022-08-21T08:23:35;12.75;;;5.47;;
25567;SDS011;13455;51.480;7.594;2022-08-21T08:26:00;13.23;;;5.40;;
25567;SDS011;13455;51.480;7.594;2022-08-21T08:28:30;11.75;;;4.80;;
25567;SDS011;13455;51.480;7.594;2022-08-21T08:30:56;13.45;;;5.55;;
25567;SDS011;13455;51.480;7.594;2022-08-21T08:33:22;11.25;;;4.93;;
25567;SDS011;13455;51.480;7.594;2022-08-21T08:35:49;11.57;;;4.90;;
25567;SDS011;13455;51.480;7.594;2022-08-21T08:38:17;11.50;;;4.70;;
25567;SDS011;13455;51.480;7.594;2022-08-21T08:43:28;10.43;;;4.50;;
25567;SDS011;13455;51.480;7.594;2022-08-21T08:45:56;9.10;;;4.33;;
25567;SDS011;13455;51.480;7.594;2022-08-21T08:48:58;11.65;;;4.90;;
25567;SDS011;13455;51.480;7.594;2022-08-21T08:51:20;12.07;;;5.10;;
25567;SDS011;13455;51.480;7.594;2022-08-21T08:54:07;10.77;;;4.97;;
25567;SDS011;13455;51.480;7.594;2022-08-21T08:56:36;10.73;;;5.00;;
25567;SDS011;13455;51.480;7.594;2022-08-21T08:59:16;10.70;;;4.60;;
25567;SDS011;13455;51.480;7.594;2022-08-21T09:01:43;10.13;;;4.22;;
25567;SDS011;13455;51.480;7.594;2022-08-21T09:04:10;11.93;;;3.83;;
25567;SDS011;13455;51.480;7.594;2022-08-21T09:07:00;11.27;;;4.50;;
25567;SDS011;13455;51.480;7.594;2022-08-21T09:09:37;9.60;;;4.00;;
25567;SDS011;13455;51.480;7.594;2022-08-21T09:18:08;12.70;;;4.32;;
25567;SDS011;13455;51.480;7.594;2022-08-21T09:20:43;8.57;;;3.30;;
25567;SDS011;13455;51.480;7.594;2022-08-21T09:26:11;9.15;;;2.92;;
25567;SDS011;13455;51.480;7.594;2022-08-21T09:28:38;11.77;;;3.45;;
25567;SDS011;13455;51.480;7.594;2022-08-21T09:31:07;9.73;;;2.97;;
25567;SDS011;13455;51.480;7.594;2022-08-21T09:33:33;10.25;;;2.80;;
25567;SDS011;13455;51.480;7.594;2022-08-21T09:35:59;11.10;;;2.72;;
25567;SDS011;13455;51.480;7.594;2022-08-21T09:40:58;8.13;;;2.67;;
25567;SDS011;13455;51.480;7.594;2022-08-21T09:43:25;9.20;;;2.85;;
25567;SDS011;13455;51.480;7.594;2022-08-21T09:46:10;8.20;;;2.47;;
25567;SDS011;13455;51.480;7.594;2022-08-21T09:51:07;7.40;;;2.43;;
25567;SDS011;13455;51.480;7.594;2022-08-21T09:53:37;6.25;;;2.15;;
25567;SDS011;13455;51.480;7.594;2022-08-21T09:56:16;8.85;;;2.20;;
25567;SDS011;13455;51.480;7.594;2022-08-21T09:59:11;8.68;;;2.50;;
25567;SDS011;13455;51.480;7.594;2022-08-21T10:01:41;7.00;;;2.20;;
25567;SDS011;13455;51.480;7.594;2022-08-21T10:04:08;8.95;;;2.40;;
25567;SDS011;13455;51.480;7.594;2022-08-21T10:06:34;7.97;;;2.10;;
25567;SDS011;13455;51.480;7.594;2022-08-21T10:09:08;6.73;;;2.00;;
25567;SDS011;13455;51.480;7.594;2022-08-21T10:11:39;6.45;;;1.95;;
25567;SDS011;13455;51.480;7.594;2022-08-21T10:14:36;8.43;;;2.35;;
25567;SDS011;13455;51.480;7.594;2022-08-21T10:30:19;8.32;;;2.17;;
25567;SDS011;13455;51.480;7.594;2022-08-21T10:35:31;5.60;;;1.87;;
25567;SDS011;13455;51.480;7.594;2022-08-21T10:43:01;8.73;;;2.40;;
25567;SDS011;13455;51.480;7.594;2022-08-21T10:50:54;6.97;;;1.80;;
25567;SDS011;13455;51.480;7.594;2022-08-21T10:53:50;5.95;;;1.73;;
25567;SDS011;13455;51.480;7.594;2022-08-21T10:56:29;6.75;;;1.90;;
25567;SDS011;13455;51.480;7.594;2022-08-21T10:59:04;6.87;;;1.90;;
25567;SDS011;13455;51.480;7.594;2022-08-21T11:04:23;9.38;;;2.08;;
25567;SDS011;13455;51.480;7.594;2022-08-21T11:06:52;7.75;;;2.05;;
25567;SDS011;13455;51.480;7.594;2022-08-21T11:09:24;7.05;;;1.80;;
25567;SDS011;13455;51.480;7.594;2022-08-21T11:11:58;9.23;;;2.23;;
25567;SDS011;13455;51.480;7.594;2022-08-21T11:17:34;5.32;;;1.60;;
25567;SDS011;13455;51.480;7.594;2022-08-21T11:20:12;5.90;;;1.70;;
25567;SDS011;13455;51.480;7.594;2022-08-21T11:23:13;7.30;;;1.88;;
25567;SDS011;13455;51.480;7.594;2022-08-21T11:28:27;6.35;;;1.50;;
25567;SDS011;13455;51.480;7.594;2022-08-21T11:34:23;6.50;;;1.67;;
25567;SDS011;13455;51.480;7.594;2022-08-21T11:36:55;6.10;;;1.60;;
25567;SDS011;13455;51.480;7.594;2022-08-21T11:39:26;5.38;;;1.80;;
25567;SDS011;13455;51.480;7.594;2022-08-21T11:52:48;6.07;;;1.50;;
25567;SDS011;13455;51.480;7.594;2022-08-21T11:55:19;5.45;;;1.60;;
25567;SDS011;13455;51.480;7.594;2022-08-21T11:57:59;5.18;;;1.52;;
25567;SDS011;13455;51.480;7.594;2022-08-21T12:03:06;7.27;;;1.33;;
25567;SDS011;13455;51.480;7.594;2022-08-21T12:05:35;5.23;;;1.30;;
25567;SDS011;13455;51.480;7.594;2022-08-21T12:08:03;4.93;;;1.35;;
25567;SDS011;13455;51.480;7.594;2022-08-21T12:10:35;4.18;;;1.33;;
25567;SDS011;13455;51.480;7.594;2022-08-21T12:13:06;4.03;;;1.33;;
25567;SDS011;13455;51.480;7.594;2022-08-21T12:15:33;5.53;;;1.50;;
25567;SDS011;13455;51.480;7.594;2022-08-21T12:18:32;5.55;;;1.30;;
25567;SDS011;13455;51.480;7.594;2022-08-21T12:23:27;5.00;;;1.40;;
25567;SDS011;13455;51.480;7.594;2022-08-21T12:26:01;5.30;;;1.70;;
25567;SDS011;13455;51.480;7.594;2022-08-21T12:28:28;4.60;;;1.33;;
25567;SDS011;13455;51.480;7.594;2022-08-21T12:30:55;4.77;;;1.40;;
25567;SDS011;13455;51.480;7.594;2022-08-21T12:33:28;4.80;;;1.30;;
25567;SDS011;13455;51.480;7.594;2022-08-21T12:41:42;6.32;;;1.40;;
25567;SDS011;13455;51.480;7.594;2022-08-21T12:44:16;3.60;;;1.10;;
25567;SDS011;13455;51.480;7.594;2022-08-21T12:49:56;5.45;;;1.10;;
25567;SDS011;13455;51.480;7.594;2022-08-21T12:52:38;3.30;;;1.00;;
25567;SDS011;13455;51.480;7.594;2022-08-21T12:55:07;2.72;;;0.80;;
25567;SDS011;13455;51.480;7.594;2022-08-21T12:57:39;4.15;;;1.00;;
25567;SDS011;13455;51.480;7.594;2022-08-21T13:00:08;4.68;;;1.20;;
25567;SDS011;13455;51.480;7.594;2022-08-21T13:02:38;3.47;;;1.23;;
25567;SDS011;13455;51.480;7.594;2022-08-21T13:05:12;4.65;;;1.48;;
25567;SDS011;13455;51.480;7.594;2022-08-21T13:07:42;3.22;;;1.10;;
25567;SDS011;13455;51.480;7.594;2022-08-21T13:12:40;3.67;;;1.30;;
25567;SDS011;13455;51.480;7.594;2022-08-21T13:15:07;5.17;;;1.30;;
25567;SDS011;13455;51.480;7.594;2022-08-21T13:17:35;2.47;;;1.00;;
25567;SDS011;13455;51.480;7.594;2022-08-21T13:20:05;2.50;;;1.10;;
25567;SDS011;13455;51.480;7.594;2022-08-21T13:22:43;4.20;;;1.10;;
25567;SDS011;13455;51.480;7.594;2022-08-21T13:25:10;3.00;;;1.03;;
25567;SDS011;13455;51.480;7.594;2022-08-21T13:27:37;2.70;;;1.00;;
25567;SDS011;13455;51.480;7.594;2022-08-21T13:30:14;2.92;;;0.90;;
25567;SDS011;13455;51.480;7.594;2022-08-21T13:32:48;2.70;;;1.00;;
25567;SDS011;13455;51.480;7.594;2022-08-21T13:37:43;2.88;;;1.10;;
25567;SDS011;13455;51.480;7.594;2022-08-21T13:40:12;2.83;;;1.00;;
25567;SDS011;13455;51.480;7.594;2022-08-21T13:42:40;2.53;;;1.00;;
25567;SDS011;13455;51.480;7.594;2022-08-21T13:45:11;3.15;;;0.90;;
25567;SDS011;13455;51.480;7.594;2022-08-21T13:47:40;3.05;;;0.98;;
25567;SDS011;13455;51.480;7.594;2022-08-21T13:50:06;2.22;;;0.90;;
25567;SDS011;13455;51.480;7.594;2022-08-21T13:52:32;2.33;;;0.88;;
25567;SDS011;13455;51.480;7.594;2022-08-21T13:55:11;1.80;;;0.73;;
25567;SDS011;13455;51.480;7.594;2022-08-21T13:57:38;3.00;;;0.90;;
25567;SDS011;13455;51.480;7.594;2022-08-21T14:00:14;2.42;;;0.98;;
25567;SDS011;13455;51.480;7.594;2022-08-21T14:02:50;2.97;;;0.80;;
25567;SDS011;13455;51.480;7.594;2022-08-21T14:07:50;2.80;;;0.80;;
25567;SDS011;13455;51.480;7.594;2022-08-21T14:10:22;1.77;;;0.70;;
25567;SDS011;13455;51.480;7.594;2022-08-21T14:12:53;1.75;;;0.70;;
25567;SDS011;13455;51.480;7.594;2022-08-21T14:15:24;1.50;;;0.60;;
25567;SDS011;13455;51.480;7.594;2022-08-21T14:17:53;1.42;;;0.70;;
25567;SDS011;13455;51.480;7.594;2022-08-21T14:23:13;2.35;;;0.70;;
25567;SDS011;13455;51.480;7.594;2022-08-21T14:25:49;1.85;;;0.65;;
25567;SDS011;13455;51.480;7.594;2022-08-21T14:28:31;1.97;;;0.70;;
25567;SDS011;13455;51.480;7.594;2022-08-21T14:30:58;1.85;;;0.77;;
25567;SDS011;13455;51.480;7.594;2022-08-21T14:33:29;2.95;;;0.82;;
25567;SDS011;13455;51.480;7.594;2022-08-21T14:35:57;2.70;;;0.80;;
25567;SDS011;13455;51.480;7.594;2022-08-21T14:38:27;1.52;;;0.60;;
25567;SDS011;13455;51.480;7.594;2022-08-21T14:40:59;3.40;;;0.90;;
25567;SDS011;13455;51.480;7.594;2022-08-21T14:43:28;2.47;;;0.90;;
25567;SDS011;13455;51.480;7.594;2022-08-21T14:45:57;4.40;;;1.00;;
25567;SDS011;13455;51.480;7.594;2022-08-21T14:48:23;2.67;;;0.80;;
25567;SDS011;13455;51.480;7.594;2022-08-21T14:50:49;2.10;;;0.80;;
25567;SDS011;13455;51.480;7.594;2022-08-21T14:53:15;2.20;;;0.77;;
25567;SDS011;13455;51.480;7.594;2022-08-21T14:55:41;2.38;;;0.80;;
25567;SDS011;13455;51.480;7.594;2022-08-21T14:58:27;3.17;;;0.90;;
25567;SDS011;13455;51.480;7.594;2022-08-21T15:00:53;3.78;;;0.90;;
25567;SDS011;13455;51.480;7.594;2022-08-21T15:03:21;2.95;;;0.95;;
25567;SDS011;13455;51.480;7.594;2022-08-21T15:05:47;2.42;;;0.75;;
25567;SDS011;13455;51.480;7.594;2022-08-21T15:08:13;2.13;;;0.80;;
25567;SDS011;13455;51.480;7.594;2022-08-21T15:10:39;3.10;;;0.90;;
25567;SDS011;13455;51.480;7.594;2022-08-21T15:13:05;2.67;;;0.90;;
25567;SDS011;13455;51.480;7.594;2022-08-21T15:15:42;3.38;;;0.90;;
25567;SDS011;13455;51.480;7.594;2022-08-21T15:18:09;2.73;;;0.90;;
25567;SDS011;13455;51.480;7.594;2022-08-21T15:20:35;3.05;;;1.00;;
25567;SDS011;13455;51.480;7.594;2022-08-21T15:23:02;2.38;;;0.88;;
25567;SDS011;13455;51.480;7.594;2022-08-21T15:25:29;3.33;;;0.98;;
25567;SDS011;13455;51.480;7.594;2022-08-21T15:27:55;3.97;;;0.90;;
25567;SDS011;13455;51.480;7.594;2022-08-21T15:30:21;2.83;;;0.93;;
25567;SDS011;13455;51.480;7.594;2022-08-21T15:32:47;3.10;;;0.90;;
25567;SDS011;13455;51.480;7.594;2022-08-21T15:35:13;3.13;;;0.90;;
25567;SDS011;13455;51.480;7.594;2022-08-21T15:37:39;1.95;;;0.73;;
25567;SDS011;13455;51.480;7.594;2022-08-21T15:40:05;4.40;;;0.80;;
25567;SDS011;13455;51.480;7.594;2022-08-21T15:42:33;3.17;;;0.90;;
25567;SDS011;13455;51.480;7.594;2022-08-21T15:44:59;2.03;;;0.82;;
25567;SDS011;13455;51.480;7.594;2022-08-21T15:47:27;2.00;;;0.90;;
25567;SDS011;13455;51.480;7.594;2022-08-21T15:49:55;2.92;;;1.00;;
25567;SDS011;13455;51.480;7.594;2022-08-21T15:52:21;3.13;;;1.00;;
25567;SDS011;13455;51.480;7.594;2022-08-21T15:54:48;3.67;;;1.00;;
25567;SDS011;13455;51.480;7.594;2022-08-21T15:57:15;2.60;;;1.00;;
25567;SDS011;13455;51.480;7.594;2022-08-21T15:59:44;3.63;;;1.13;;
25567;SDS011;13455;51.480;7.594;2022-08-21T16:02:15;2.60;;;0.95;;
25567;SDS011;13455;51.480;7.594;2022-08-21T16:05:03;3.57;;;1.10;;
25567;SDS011;13455;51.480;7.594;2022-08-21T16:07:29;3.83;;;0.90;;
25567;SDS011;13455;51.480;7.594;2022-08-21T16:09:54;3.50;;;1.00;;
25567;SDS011;13455;51.480;7.594;2022-08-21T16:12:21;2.22;;;0.90;;
25567;SDS011;13455;51.480;7.594;2022-08-21T16:14:51;3.78;;;0.90;;
25567;SDS011;13455;51.480;7.594;2022-08-21T16:17:18;2.87;;;1.00;;
25567;SDS011;13455;51.480;7.594;2022-08-21T16:19:44;2.65;;;1.00;;
25567;SDS011;13455;51.480;7.594;2022-08-21T16:22:10;3.03;;;0.90;;